createdAt,value
2017-05-11T00:00:34.009Z,993.74
2017-05-11T00:01:34.660Z,993.72
2017-05-11T00:02:35.353Z,993.74
2017-05-11T00:03:35.995Z,993.67
2017-05-11T00:04:36.587Z,993.68
2017-05-11T00:05:37.182Z,993.69
2017-05-11T00:06:37.781Z,993.67
2017-05-11T00:07:38.387Z,993.68
2017-05-11T00:08:38.987Z,993.69
2017-05-11T00:09:39.596Z,993.67
2017-05-11T00:10:40.202Z,993.65
2017-05-11T00:11:40.807Z,993.64
2017-05-11T00:12:41.403Z,993.62
2017-05-11T00:13:42.016Z,993.58
2017-05-11T00:14:42.618Z,993.54
2017-05-11T00:15:43.214Z,993.54
2017-05-11T00:16:43.820Z,993.54
2017-05-11T00:17:44.416Z,993.60
2017-05-11T00:18:45.031Z,993.54
2017-05-11T00:19:45.620Z,993.55
2017-05-11T00:20:46.224Z,993.54
2017-05-11T00:21:46.883Z,993.52
2017-05-11T00:22:47.487Z,993.47
2017-05-11T00:23:48.090Z,993.46
2017-05-11T00:24:48.702Z,993.44
2017-05-11T00:25:49.291Z,993.46
2017-05-11T00:26:49.952Z,993.44
2017-05-11T00:27:50.564Z,993.41
2017-05-11T00:28:51.174Z,993.39
2017-05-11T00:29:51.769Z,993.35
2017-05-11T00:30:52.376Z,993.37
2017-05-11T00:31:52.978Z,993.36
2017-05-11T00:32:53.583Z,993.38
2017-05-11T00:33:54.176Z,993.34
2017-05-11T00:34:54.773Z,993.32
2017-05-11T00:35:55.381Z,993.32
2017-05-11T00:36:56.037Z,993.29
2017-05-11T00:37:56.646Z,993.30
2017-05-11T00:38:57.252Z,993.29
2017-05-11T00:39:57.842Z,993.28
2017-05-11T00:40:58.446Z,993.24
2017-05-11T00:41:59.053Z,993.23
2017-05-11T00:42:59.659Z,993.24
2017-05-11T00:44:00.253Z,993.20
2017-05-11T00:45:00.850Z,993.25
2017-05-11T00:46:01.463Z,993.24
2017-05-11T00:47:02.098Z,993.24
2017-05-11T00:48:02.705Z,993.21
2017-05-11T00:49:03.312Z,993.17
2017-05-11T00:50:03.920Z,993.18
2017-05-11T00:51:04.516Z,993.17
2017-05-11T00:52:05.125Z,993.17
2017-05-11T00:53:05.730Z,993.14
2017-05-11T00:54:06.325Z,993.16
2017-05-11T00:55:06.930Z,993.14
2017-05-11T00:56:07.532Z,993.17
2017-05-11T00:57:08.136Z,993.14
2017-05-11T00:58:08.728Z,993.11
2017-05-11T00:59:09.326Z,993.11
2017-05-11T01:00:09.919Z,993.10
2017-05-11T01:01:10.524Z,993.09
2017-05-11T01:02:11.129Z,993.09
2017-05-11T01:03:11.716Z,993.10
2017-05-11T01:04:12.323Z,993.07
2017-05-11T01:05:12.930Z,993.09
2017-05-11T01:06:13.535Z,993.06
2017-05-11T01:07:14.128Z,993.05
2017-05-11T01:08:14.732Z,993.03
2017-05-11T01:09:15.327Z,993.02
2017-05-11T01:10:15.938Z,993.07
2017-05-11T01:11:16.544Z,993.02
2017-05-11T01:12:17.152Z,992.97
2017-05-11T01:13:17.749Z,992.98
2017-05-11T01:14:18.349Z,992.94
2017-05-11T01:15:18.946Z,992.89
2017-05-11T01:16:19.556Z,992.88
2017-05-11T01:17:20.151Z,992.88
2017-05-11T01:18:20.749Z,992.83
2017-05-11T01:19:21.357Z,992.85
2017-05-11T01:20:21.954Z,992.83
2017-05-11T01:21:22.568Z,992.83
2017-05-11T01:22:23.183Z,992.81
2017-05-11T01:23:23.809Z,992.79
2017-05-11T01:24:24.407Z,992.78
2017-05-11T01:25:25.010Z,992.78
2017-05-11T01:26:25.615Z,992.76
2017-05-11T01:27:26.216Z,992.76
2017-05-11T01:28:26.826Z,992.72
2017-05-11T01:29:27.430Z,992.76
2017-05-11T01:30:28.037Z,992.74
2017-05-11T01:31:28.638Z,992.73
2017-05-11T01:32:29.240Z,992.70
2017-05-11T01:33:29.842Z,992.66
2017-05-11T01:34:30.445Z,992.68
2017-05-11T01:35:31.036Z,992.70
2017-05-11T01:36:31.641Z,992.69
2017-05-11T01:37:32.234Z,992.67
2017-05-11T01:38:32.839Z,992.66
2017-05-11T01:39:33.444Z,992.68
2017-05-11T01:40:34.048Z,992.67
2017-05-11T01:41:34.646Z,992.63
2017-05-11T01:42:35.232Z,992.61
2017-05-11T01:43:35.826Z,992.61
2017-05-11T01:44:36.431Z,992.58
2017-05-11T01:45:37.026Z,992.58
2017-05-11T01:46:37.644Z,992.56
2017-05-11T01:47:38.253Z,992.55
2017-05-11T01:48:38.843Z,992.55
2017-05-11T01:49:39.436Z,992.55
2017-05-11T01:50:40.040Z,992.51
2017-05-11T01:51:40.629Z,992.49
2017-05-11T01:52:41.233Z,992.44
2017-05-11T01:53:41.833Z,992.41
2017-05-11T01:54:42.425Z,992.38
2017-05-11T01:55:43.032Z,992.37
2017-05-11T01:56:43.679Z,992.35
2017-05-11T01:57:44.297Z,992.36
2017-05-11T01:58:44.922Z,992.32
2017-05-11T01:59:45.530Z,992.32
2017-05-11T02:00:46.149Z,992.31
2017-05-11T02:01:46.749Z,992.28
2017-05-11T02:02:47.355Z,992.27
2017-05-11T02:03:47.961Z,992.27
2017-05-11T02:04:48.563Z,992.30
2017-05-11T02:05:49.170Z,992.27
2017-05-11T02:06:49.779Z,992.28
2017-05-11T02:07:50.387Z,992.29
2017-05-11T02:08:50.982Z,992.24
2017-05-11T02:09:51.590Z,992.23
2017-05-11T02:10:52.202Z,992.21
2017-05-11T02:11:52.854Z,992.22
2017-05-11T02:12:53.444Z,992.21
2017-05-11T02:13:54.054Z,992.20
2017-05-11T02:14:54.658Z,992.20
2017-05-11T02:15:55.260Z,992.14
2017-05-11T02:16:55.907Z,992.14
2017-05-11T02:17:56.508Z,992.17
2017-05-11T02:18:57.105Z,992.13
2017-05-11T02:19:57.726Z,992.11
2017-05-11T02:20:58.329Z,992.11
2017-05-11T02:21:58.928Z,992.11
2017-05-11T02:22:59.535Z,992.07
2017-05-11T02:24:00.147Z,992.11
2017-05-11T02:25:00.761Z,992.11
2017-05-11T02:26:01.359Z,992.08
2017-05-11T02:27:01.969Z,992.07
2017-05-11T02:28:02.573Z,992.07
2017-05-11T02:29:03.168Z,992.05
2017-05-11T02:30:03.774Z,992.02
2017-05-11T02:31:04.381Z,992.02
2017-05-11T02:32:04.982Z,991.99
2017-05-11T02:33:05.583Z,991.92
2017-05-11T02:34:06.181Z,991.94
2017-05-11T02:35:06.772Z,991.89
2017-05-11T02:36:07.382Z,991.91
2017-05-11T02:37:07.976Z,991.90
2017-05-11T02:38:08.587Z,991.90
2017-05-11T02:39:09.192Z,991.87
2017-05-11T02:40:09.782Z,991.84
2017-05-11T02:41:10.377Z,991.77
2017-05-11T02:42:10.986Z,991.81
2017-05-11T02:43:11.593Z,991.79
2017-05-11T02:44:12.201Z,991.74
2017-05-11T02:45:12.808Z,991.74
2017-05-11T02:46:13.469Z,991.72
2017-05-11T02:47:14.077Z,991.74
2017-05-11T02:48:14.670Z,991.76
2017-05-11T02:49:15.269Z,991.72
2017-05-11T02:50:15.857Z,991.71
2017-05-11T02:51:16.455Z,991.69
2017-05-11T02:52:17.054Z,991.67
2017-05-11T02:53:17.662Z,991.69
2017-05-11T02:54:18.266Z,991.65
2017-05-11T02:55:18.865Z,991.65
2017-05-11T02:56:19.459Z,991.61
2017-05-11T02:57:20.052Z,991.60
2017-05-11T02:58:20.646Z,991.63
2017-05-11T02:59:21.238Z,991.60
2017-05-11T03:00:21.835Z,991.59
2017-05-11T03:01:22.486Z,991.56
2017-05-11T03:02:23.084Z,991.54
2017-05-11T03:03:23.685Z,991.53
2017-05-11T03:04:24.282Z,991.57
2017-05-11T03:05:24.874Z,991.48
2017-05-11T03:06:25.533Z,991.44
2017-05-11T03:07:26.140Z,991.46
2017-05-11T03:08:26.740Z,991.47
2017-05-11T03:09:27.349Z,991.45
2017-05-11T03:10:27.953Z,991.43
2017-05-11T03:11:28.602Z,991.41
2017-05-11T03:12:29.206Z,991.40
2017-05-11T03:13:29.799Z,991.42
2017-05-11T03:14:30.396Z,991.36
2017-05-11T03:15:31.000Z,991.44
2017-05-11T03:16:31.593Z,991.41
2017-05-11T03:17:32.201Z,991.40
2017-05-11T03:18:32.806Z,991.42
2017-05-11T03:19:33.411Z,991.39
2017-05-11T03:20:34.010Z,991.37
2017-05-11T03:21:34.668Z,991.32
2017-05-11T03:22:35.275Z,991.33
2017-05-11T03:23:35.884Z,991.34
2017-05-11T03:24:36.495Z,991.30
2017-05-11T03:25:37.093Z,991.27
2017-05-11T03:26:37.749Z,991.29
2017-05-11T03:27:38.345Z,991.29
2017-05-11T03:28:38.937Z,991.28
2017-05-11T03:29:39.533Z,991.28
2017-05-11T03:30:40.135Z,991.25
2017-05-11T03:31:40.790Z,991.25
2017-05-11T03:32:41.397Z,991.26
2017-05-11T03:33:42.002Z,991.22
2017-05-11T03:34:42.595Z,991.23
2017-05-11T03:35:43.192Z,991.26
2017-05-11T03:36:43.795Z,991.24
2017-05-11T03:37:44.393Z,991.22
2017-05-11T03:38:45.001Z,991.24
2017-05-11T03:39:45.605Z,991.19
2017-05-11T03:40:46.207Z,991.17
2017-05-11T03:41:46.815Z,991.13
2017-05-11T03:42:47.424Z,991.17
2017-05-11T03:43:48.035Z,991.20
2017-05-11T03:44:48.631Z,991.18
2017-05-11T03:45:49.228Z,991.17
2017-05-11T03:46:49.826Z,991.17
2017-05-11T03:47:50.435Z,991.14
2017-05-11T03:48:51.032Z,991.12
2017-05-11T03:49:51.629Z,991.16
2017-05-11T03:50:52.242Z,991.12
2017-05-11T03:51:52.850Z,991.12
2017-05-11T03:52:53.456Z,991.14
2017-05-11T03:53:54.064Z,991.06
2017-05-11T03:54:54.667Z,991.02
2017-05-11T03:55:55.260Z,991.00
2017-05-11T03:56:55.868Z,991.04
2017-05-11T03:57:56.481Z,991.01
2017-05-11T03:58:57.078Z,991.00
2017-05-11T03:59:57.686Z,991.02
2017-05-11T04:00:58.295Z,991.06
2017-05-11T04:01:58.946Z,991.04
2017-05-11T04:02:59.552Z,991.05
2017-05-11T04:04:00.154Z,990.99
2017-05-11T04:05:00.749Z,991.04
2017-05-11T04:06:01.361Z,991.00
2017-05-11T04:07:01.963Z,991.00
2017-05-11T04:08:02.559Z,991.00
2017-05-11T04:09:03.156Z,991.01
2017-05-11T04:10:03.753Z,991.01
2017-05-11T04:11:04.353Z,990.98
2017-05-11T04:12:04.970Z,990.99
2017-05-11T04:13:05.580Z,991.01
2017-05-11T04:14:06.182Z,991.03
2017-05-11T04:15:06.798Z,991.00
2017-05-11T04:16:07.417Z,991.01
2017-05-11T04:17:08.018Z,991.02
2017-05-11T04:18:08.629Z,991.03
2017-05-11T04:19:09.237Z,991.04
2017-05-11T04:20:09.834Z,991.02
2017-05-11T04:21:10.494Z,991.03
2017-05-11T04:22:11.106Z,991.01
2017-05-11T04:23:11.719Z,991.04
2017-05-11T04:24:12.330Z,990.99
2017-05-11T04:25:12.937Z,990.97
2017-05-11T04:26:13.601Z,990.97
2017-05-11T04:27:14.208Z,990.92
2017-05-11T04:28:14.808Z,990.93
2017-05-11T04:29:15.422Z,990.94
2017-05-11T04:30:16.036Z,990.91
2017-05-11T04:31:16.699Z,990.96
2017-05-11T04:32:17.301Z,990.89
2017-05-11T04:33:17.907Z,990.88
2017-05-11T04:34:18.519Z,990.85
2017-05-11T04:35:19.136Z,990.86
2017-05-11T04:36:19.840Z,990.86
2017-05-11T04:37:20.433Z,990.85
2017-05-11T04:38:21.059Z,990.88
2017-05-11T04:39:21.671Z,990.84
2017-05-11T04:40:22.340Z,990.89
2017-05-11T04:41:22.956Z,990.89
2017-05-11T04:42:23.561Z,990.87
2017-05-11T04:43:24.160Z,990.93
2017-05-11T04:44:24.774Z,990.85
2017-05-11T04:45:25.402Z,990.88
2017-05-11T04:46:26.017Z,990.84
2017-05-11T04:47:26.625Z,990.85
2017-05-11T04:48:27.256Z,990.86
2017-05-11T04:49:27.890Z,990.85
2017-05-11T04:50:28.512Z,990.85
2017-05-11T04:51:29.137Z,990.83
2017-05-11T04:52:29.771Z,990.83
2017-05-11T04:53:30.380Z,990.83
2017-05-11T04:54:31.044Z,990.79
2017-05-11T04:55:31.648Z,990.80
2017-05-11T04:56:32.308Z,990.76
2017-05-11T04:57:32.938Z,990.78
2017-05-11T04:58:33.558Z,990.75
2017-05-11T04:59:34.181Z,990.74
2017-05-11T05:00:34.789Z,990.77
2017-05-11T05:01:35.399Z,990.78
2017-05-11T05:02:36.010Z,990.78
2017-05-11T05:03:36.634Z,990.78
2017-05-11T05:04:37.259Z,990.76
2017-05-11T05:05:37.861Z,990.73
2017-05-11T05:06:38.471Z,990.74
2017-05-11T05:07:39.083Z,990.77
2017-05-11T05:08:39.706Z,990.78
2017-05-11T05:09:40.318Z,990.82
2017-05-11T05:10:40.940Z,990.82
2017-05-11T05:11:41.628Z,990.80
2017-05-11T05:12:42.277Z,990.77
2017-05-11T05:13:42.884Z,990.78
2017-05-11T05:14:43.498Z,990.77
2017-05-11T05:15:44.106Z,990.78
2017-05-11T05:16:44.769Z,990.79
2017-05-11T05:17:45.393Z,990.77
2017-05-11T05:18:46.016Z,990.79
2017-05-11T05:19:46.637Z,990.79
2017-05-11T05:20:47.253Z,990.75
2017-05-11T05:21:48.023Z,990.76
2017-05-11T05:22:48.643Z,990.72
2017-05-11T05:23:49.266Z,990.72
2017-05-11T05:24:49.889Z,990.75
2017-05-11T05:25:50.510Z,990.69
2017-05-11T05:26:51.126Z,990.70
2017-05-11T05:27:51.738Z,990.65
2017-05-11T05:28:52.347Z,990.67
2017-05-11T05:29:52.968Z,990.63
2017-05-11T05:30:53.593Z,990.62
2017-05-11T05:31:54.220Z,990.64
2017-05-11T05:32:54.843Z,990.63
2017-05-11T05:33:55.463Z,990.61
2017-05-11T05:34:56.083Z,990.61
2017-05-11T05:35:56.693Z,990.57
2017-05-11T05:36:57.299Z,990.60
2017-05-11T05:37:57.923Z,990.55
2017-05-11T05:38:58.541Z,990.57
2017-05-11T05:39:59.164Z,990.57
2017-05-11T05:40:59.812Z,990.49
2017-05-11T05:42:00.480Z,990.52
2017-05-11T05:43:01.095Z,990.51
2017-05-11T05:44:01.708Z,990.55
2017-05-11T05:45:02.326Z,990.54
2017-05-11T05:46:02.948Z,990.56
2017-05-11T05:47:03.600Z,990.54
2017-05-11T05:48:04.242Z,990.55
2017-05-11T05:49:04.859Z,990.58
2017-05-11T05:50:05.504Z,990.57
2017-05-11T05:51:06.169Z,990.58
2017-05-11T05:52:06.835Z,990.60
2017-05-11T05:53:07.467Z,990.62
2017-05-11T05:54:08.100Z,990.67
2017-05-11T05:55:08.717Z,990.62
2017-05-11T05:56:09.337Z,990.63
2017-05-11T05:57:10.022Z,990.64
2017-05-11T05:58:10.650Z,990.60
2017-05-11T05:59:11.279Z,990.61
2017-05-11T06:00:11.894Z,990.63
2017-05-11T06:01:12.563Z,990.67
2017-05-11T06:02:13.229Z,990.64
2017-05-11T06:03:14.845Z,990.62
2017-05-11T06:04:15.466Z,990.62
2017-05-11T06:05:16.091Z,990.58
2017-05-11T06:06:16.714Z,990.56
2017-05-11T06:07:17.328Z,990.53
2017-05-11T06:08:17.955Z,990.58
2017-05-11T06:09:18.568Z,990.55
2017-05-11T06:10:19.187Z,990.57
2017-05-11T06:11:19.822Z,990.61
2017-05-11T06:12:20.442Z,990.61
2017-05-11T06:13:21.079Z,990.62
2017-05-11T06:14:21.706Z,990.59
2017-05-11T06:15:22.339Z,990.58
2017-05-11T06:16:22.976Z,990.57
2017-05-11T06:17:23.604Z,990.56
2017-05-11T06:18:24.240Z,990.57
2017-05-11T06:19:24.876Z,990.58
2017-05-11T06:20:25.497Z,990.56
2017-05-11T06:21:26.117Z,990.54
2017-05-11T06:22:26.731Z,990.56
2017-05-11T06:23:27.359Z,990.55
2017-05-11T06:24:27.988Z,990.52
2017-05-11T06:25:28.602Z,990.54
2017-05-11T06:26:29.239Z,990.54
2017-05-11T06:27:29.886Z,990.52
2017-05-11T06:28:30.519Z,990.53
2017-05-11T06:29:31.156Z,990.56
2017-05-11T06:30:31.766Z,990.64
2017-05-11T06:31:32.381Z,990.65
2017-05-11T06:32:32.998Z,990.66
2017-05-11T06:33:33.627Z,990.64
2017-05-11T06:34:34.261Z,990.67
2017-05-11T06:35:34.869Z,990.66
2017-05-11T06:36:35.493Z,990.64
2017-05-11T06:37:36.109Z,990.66
2017-05-11T06:38:36.726Z,990.63
2017-05-11T06:39:37.350Z,990.63
2017-05-11T06:40:37.974Z,990.70
2017-05-11T06:41:38.587Z,990.62
2017-05-11T06:42:39.198Z,990.64
2017-05-11T06:43:39.808Z,990.72
2017-05-11T06:44:40.439Z,990.70
2017-05-11T06:45:41.073Z,990.73
2017-05-11T06:46:41.698Z,990.76
2017-05-11T06:47:42.327Z,990.77
2017-05-11T06:48:42.955Z,990.77
2017-05-11T06:49:43.586Z,990.78
2017-05-11T06:50:44.211Z,990.83
2017-05-11T06:51:44.889Z,990.77
2017-05-11T06:52:45.514Z,990.79
2017-05-11T06:53:46.129Z,990.81
2017-05-11T06:54:46.758Z,990.79
2017-05-11T06:55:47.377Z,990.83
2017-05-11T06:56:48.022Z,990.76
2017-05-11T06:57:48.650Z,990.73
2017-05-11T06:58:49.265Z,990.70
2017-05-11T06:59:49.904Z,990.72
2017-05-11T07:00:50.525Z,990.70
2017-05-11T07:01:51.203Z,990.71
2017-05-11T07:02:51.822Z,990.72
2017-05-11T07:03:52.470Z,990.70
2017-05-11T07:04:53.098Z,990.73
2017-05-11T07:05:53.719Z,990.70
2017-05-11T07:06:54.382Z,990.69
2017-05-11T07:07:55.006Z,990.69
2017-05-11T07:08:55.626Z,990.71
2017-05-11T07:09:56.250Z,990.70
2017-05-11T07:10:56.878Z,990.68
2017-05-11T07:11:57.564Z,990.69
2017-05-11T07:12:58.187Z,990.70
2017-05-11T07:13:58.796Z,990.73
2017-05-11T07:14:59.411Z,990.67
2017-05-11T07:16:00.034Z,990.67
2017-05-11T07:17:00.695Z,990.66
2017-05-11T07:18:01.315Z,990.65
2017-05-11T07:19:01.936Z,990.66
2017-05-11T07:20:02.570Z,990.64
2017-05-11T07:21:03.184Z,990.61
2017-05-11T07:22:03.806Z,990.61
2017-05-11T07:23:04.435Z,990.61
2017-05-11T07:24:05.051Z,990.62
2017-05-11T07:25:05.680Z,990.63
2017-05-11T07:26:06.312Z,990.61
2017-05-11T07:27:06.943Z,990.63
2017-05-11T07:28:07.567Z,990.67
2017-05-11T07:29:08.204Z,990.64
2017-05-11T07:30:08.822Z,990.67
2017-05-11T07:31:09.444Z,990.62
2017-05-11T07:32:10.112Z,990.63
2017-05-11T07:33:10.753Z,990.59
2017-05-11T07:34:11.380Z,990.59
2017-05-11T07:35:11.994Z,990.58
2017-05-11T07:36:12.606Z,990.59
2017-05-11T07:37:13.217Z,990.55
2017-05-11T07:38:13.833Z,990.59
2017-05-11T07:39:14.460Z,990.59
2017-05-11T07:40:15.074Z,990.56
2017-05-11T07:41:15.688Z,990.59
2017-05-11T07:42:16.326Z,990.61
2017-05-11T07:43:16.944Z,990.63
2017-05-11T07:44:17.570Z,990.65
2017-05-11T07:45:18.203Z,990.59
2017-05-11T07:46:18.847Z,990.60
2017-05-11T07:47:19.466Z,990.59
2017-05-11T07:48:20.080Z,990.55
2017-05-11T07:49:20.692Z,990.60
2017-05-11T07:50:21.313Z,990.57
2017-05-11T07:51:21.928Z,990.54
2017-05-11T07:52:22.554Z,990.58
2017-05-11T07:53:23.179Z,990.58
2017-05-11T07:54:23.819Z,990.54
2017-05-11T07:55:24.427Z,990.54
2017-05-11T07:56:25.054Z,990.52
2017-05-11T07:57:25.681Z,990.55
2017-05-11T07:58:26.309Z,990.51
2017-05-11T07:59:26.935Z,990.54
2017-05-11T08:00:27.545Z,990.52
2017-05-11T08:01:28.161Z,990.52
2017-05-11T08:02:28.774Z,990.50
2017-05-11T08:03:29.391Z,990.48
2017-05-11T08:04:30.017Z,990.47
2017-05-11T08:05:30.641Z,990.46
2017-05-11T08:06:31.277Z,990.44
2017-05-11T08:07:31.908Z,990.43
2017-05-11T08:08:32.536Z,990.40
2017-05-11T08:09:33.152Z,990.37
2017-05-11T08:10:33.760Z,990.42
2017-05-11T08:11:34.384Z,990.41
2017-05-11T08:12:35.008Z,990.40
2017-05-11T08:13:35.629Z,990.39
2017-05-11T08:14:36.256Z,990.33
2017-05-11T08:15:36.874Z,990.40
2017-05-11T08:16:37.507Z,990.36
2017-05-11T08:17:38.124Z,990.36
2017-05-11T08:18:38.744Z,990.34
2017-05-11T08:19:39.367Z,990.31
2017-05-11T08:20:39.982Z,990.31
2017-05-11T08:21:40.652Z,990.25
2017-05-11T08:22:41.281Z,990.26
2017-05-11T08:23:41.911Z,990.25
2017-05-11T08:24:42.532Z,990.23
2017-05-11T08:25:43.154Z,990.24
2017-05-11T08:26:43.782Z,990.27
2017-05-11T08:27:44.411Z,990.26
2017-05-11T08:28:45.037Z,990.30
2017-05-11T08:29:45.665Z,990.30
2017-05-11T08:30:46.295Z,990.32
2017-05-11T08:31:46.971Z,990.32
2017-05-11T08:32:47.589Z,990.32
2017-05-11T08:33:48.203Z,990.35
2017-05-11T08:34:48.836Z,990.35
2017-05-11T08:35:49.469Z,990.35
2017-05-11T08:36:50.135Z,990.39
2017-05-11T08:37:50.746Z,990.37
2017-05-11T08:38:51.369Z,990.39
2017-05-11T08:39:51.985Z,990.38
2017-05-11T08:40:52.600Z,990.35
2017-05-11T08:41:53.230Z,990.33
2017-05-11T08:42:53.853Z,990.36
2017-05-11T08:43:54.470Z,990.35
2017-05-11T08:44:55.095Z,990.32
2017-05-11T08:45:55.925Z,990.22
2017-05-11T08:46:56.535Z,990.30
2017-05-11T08:47:57.154Z,990.25
2017-05-11T08:48:57.778Z,990.28
2017-05-11T08:49:58.407Z,990.29
2017-05-11T08:50:59.020Z,990.25
2017-05-11T08:51:59.696Z,990.24
2017-05-11T08:53:00.318Z,990.21
2017-05-11T08:54:00.933Z,990.20
2017-05-11T08:55:01.562Z,990.22
2017-05-11T08:56:02.188Z,990.20
2017-05-11T08:57:02.819Z,990.19
2017-05-11T08:58:03.437Z,990.22
2017-05-11T08:59:04.054Z,990.18
2017-05-11T09:00:04.679Z,990.17
2017-05-11T09:01:05.300Z,990.22
2017-05-11T09:02:05.923Z,990.22
2017-05-11T09:03:06.545Z,990.20
2017-05-11T09:04:07.159Z,990.15
2017-05-11T09:05:07.772Z,990.21
2017-05-11T09:06:08.548Z,990.23
2017-05-11T09:07:09.184Z,990.20
2017-05-11T09:08:09.801Z,990.17
2017-05-11T09:09:10.410Z,990.17
2017-05-11T09:10:11.037Z,990.22
2017-05-11T09:11:11.704Z,990.16
2017-05-11T09:12:12.341Z,990.19
2017-05-11T09:13:12.941Z,990.24
2017-05-11T09:14:13.565Z,990.19
2017-05-11T09:15:14.175Z,990.20
2017-05-11T09:16:14.855Z,990.19
2017-05-11T09:17:15.481Z,990.19
2017-05-11T09:18:16.107Z,990.15
2017-05-11T09:19:16.733Z,990.11
2017-05-11T09:20:17.351Z,990.14
2017-05-11T09:21:17.973Z,990.13
2017-05-11T09:22:18.590Z,990.19
2017-05-11T09:23:19.213Z,990.12
2017-05-11T09:24:19.841Z,990.11
2017-05-11T09:25:20.467Z,990.11
2017-05-11T09:26:21.095Z,990.12
2017-05-11T09:27:21.711Z,990.07
2017-05-11T09:28:22.340Z,990.08
2017-05-11T09:29:22.972Z,990.06
2017-05-11T09:30:23.594Z,990.09
2017-05-11T09:31:24.258Z,989.99
2017-05-11T09:32:24.883Z,990.07
2017-05-11T09:33:25.511Z,990.00
2017-05-11T09:34:26.129Z,989.98
2017-05-11T09:35:26.763Z,989.99
2017-05-11T09:36:27.393Z,989.96
2017-05-11T09:37:28.002Z,989.95
2017-05-11T09:38:28.616Z,989.94
2017-05-11T09:39:29.231Z,989.99
2017-05-11T09:40:29.858Z,989.93
2017-05-11T09:41:30.471Z,989.90
2017-05-11T09:42:31.081Z,989.96
2017-05-11T09:43:31.711Z,989.91
2017-05-11T09:44:32.344Z,989.92
2017-05-11T09:45:32.985Z,989.90
2017-05-11T09:46:33.599Z,989.91
2017-05-11T09:47:34.210Z,989.90
2017-05-11T09:48:35.031Z,989.94
2017-05-11T09:49:35.658Z,989.92
2017-05-11T09:50:36.283Z,989.88
2017-05-11T09:51:36.894Z,989.92
2017-05-11T09:52:37.519Z,989.89
2017-05-11T09:53:38.146Z,989.87
2017-05-11T09:54:38.771Z,989.87
2017-05-11T09:55:39.387Z,989.86
2017-05-11T09:56:40.011Z,989.84
2017-05-11T09:57:40.627Z,989.86
2017-05-11T09:58:41.242Z,989.88
2017-05-11T09:59:41.856Z,989.83
2017-05-11T10:00:42.483Z,989.83
2017-05-11T10:01:43.166Z,989.86
2017-05-11T10:02:43.781Z,989.82
2017-05-11T10:03:44.396Z,989.87
2017-05-11T10:04:45.018Z,989.85
2017-05-11T10:05:45.863Z,989.87
2017-05-11T10:06:46.539Z,989.81
2017-05-11T10:07:47.165Z,989.80
2017-05-11T10:08:47.791Z,989.82
2017-05-11T10:09:48.435Z,989.77
2017-05-11T10:10:49.065Z,989.81
2017-05-11T10:11:49.746Z,989.78
2017-05-11T10:12:50.372Z,989.80
2017-05-11T10:13:50.983Z,989.72
2017-05-11T10:14:51.608Z,989.74
2017-05-11T10:15:52.235Z,989.70
2017-05-11T10:16:52.909Z,989.69
2017-05-11T10:17:53.537Z,989.74
2017-05-11T10:18:54.148Z,989.76
2017-05-11T10:19:54.774Z,989.79
2017-05-11T10:20:55.625Z,989.72
2017-05-11T10:21:56.453Z,989.75
2017-05-11T10:22:57.081Z,989.71
2017-05-11T10:23:57.693Z,989.69
2017-05-11T10:24:58.330Z,989.69
2017-05-11T10:25:58.995Z,989.68
2017-05-11T10:26:59.626Z,989.64
2017-05-11T10:28:00.253Z,989.65
2017-05-11T10:29:00.870Z,989.66
2017-05-11T10:30:01.483Z,989.63
2017-05-11T10:31:02.110Z,989.58
2017-05-11T10:32:02.737Z,989.54
2017-05-11T10:33:03.354Z,989.59
2017-05-11T10:34:03.988Z,989.57
2017-05-11T10:35:04.839Z,989.62
2017-05-11T10:36:05.469Z,989.52
2017-05-11T10:37:06.092Z,989.52
2017-05-11T10:38:06.717Z,989.49
2017-05-11T10:39:07.349Z,989.50
2017-05-11T10:40:07.965Z,989.51
2017-05-11T10:41:08.580Z,989.51
2017-05-11T10:42:09.209Z,989.49
2017-05-11T10:43:09.840Z,989.42
2017-05-11T10:44:10.471Z,989.43
2017-05-11T10:45:11.110Z,989.44
2017-05-11T10:46:11.733Z,989.47
2017-05-11T10:47:12.410Z,989.41
2017-05-11T10:48:13.037Z,989.42
2017-05-11T10:49:13.661Z,989.39
2017-05-11T10:50:14.284Z,989.34
2017-05-11T10:51:14.922Z,989.33
2017-05-11T10:52:15.555Z,989.36
2017-05-11T10:53:16.180Z,989.32
2017-05-11T10:54:16.809Z,989.31
2017-05-11T10:55:17.439Z,989.26
2017-05-11T10:56:18.072Z,989.28
2017-05-11T10:57:18.706Z,989.24
2017-05-11T10:58:19.344Z,989.25
2017-05-11T10:59:19.982Z,989.24
2017-05-11T11:00:20.622Z,989.14
2017-05-11T11:01:21.253Z,989.16
2017-05-11T11:02:21.882Z,989.17
2017-05-11T11:03:22.502Z,989.20
2017-05-11T11:04:23.359Z,989.14
2017-05-11T11:05:23.990Z,989.10
2017-05-11T11:06:24.619Z,989.12
2017-05-11T11:07:25.293Z,989.06
2017-05-11T11:08:25.923Z,989.07
2017-05-11T11:09:26.554Z,989.01
2017-05-11T11:10:27.186Z,988.98
2017-05-11T11:11:27.820Z,988.94
2017-05-11T11:12:28.446Z,988.99
2017-05-11T11:13:29.079Z,988.88
2017-05-11T11:14:29.692Z,988.93
2017-05-11T11:15:30.330Z,988.91
2017-05-11T11:16:30.963Z,988.88
2017-05-11T11:17:31.588Z,988.91
2017-05-11T11:18:32.226Z,988.87
2017-05-11T11:19:32.865Z,988.92
2017-05-11T11:20:33.483Z,988.89
2017-05-11T11:21:34.323Z,988.82
2017-05-11T11:22:34.954Z,988.82
2017-05-11T11:23:35.585Z,988.83
2017-05-11T11:24:36.227Z,988.81
2017-05-11T11:25:36.871Z,988.78
2017-05-11T11:26:37.553Z,988.77
2017-05-11T11:27:38.188Z,988.76
2017-05-11T11:28:38.818Z,988.73
2017-05-11T11:29:39.456Z,988.75
2017-05-11T11:30:40.083Z,988.72
2017-05-11T11:31:40.704Z,988.74
2017-05-11T11:32:41.335Z,988.73
2017-05-11T11:33:41.956Z,988.73
2017-05-11T11:34:42.589Z,988.72
2017-05-11T11:35:43.209Z,988.68
2017-05-11T11:36:43.827Z,988.65
2017-05-11T11:37:44.465Z,988.61
2017-05-11T11:38:45.094Z,988.66
2017-05-11T11:39:45.718Z,988.59
2017-05-11T11:40:46.350Z,988.63
2017-05-11T11:41:46.980Z,988.62
2017-05-11T11:42:47.608Z,988.62
2017-05-11T11:43:48.244Z,988.62
2017-05-11T11:44:48.871Z,988.56
2017-05-11T11:45:49.508Z,988.59
2017-05-11T11:46:50.193Z,988.56
2017-05-11T11:47:50.809Z,988.56
2017-05-11T11:48:51.428Z,988.55
2017-05-11T11:49:52.264Z,988.60
2017-05-11T11:50:52.891Z,988.56
2017-05-11T11:51:53.529Z,988.52
2017-05-11T11:52:54.156Z,988.54
2017-05-11T11:53:54.795Z,988.57
2017-05-11T11:54:55.419Z,988.54
2017-05-11T11:55:56.104Z,988.49
2017-05-11T11:56:56.728Z,988.50
2017-05-11T11:57:57.345Z,988.57
2017-05-11T11:58:57.971Z,988.51
2017-05-11T11:59:58.601Z,988.58
2017-05-11T12:00:59.251Z,988.52
2017-05-11T12:01:59.892Z,988.48
2017-05-11T12:03:00.510Z,988.51
2017-05-11T12:04:01.128Z,988.48
2017-05-11T12:05:01.763Z,988.49
2017-05-11T12:06:02.395Z,988.42
2017-05-11T12:07:03.028Z,988.39
2017-05-11T12:08:03.661Z,988.47
2017-05-11T12:09:04.290Z,988.44
2017-05-11T12:10:04.908Z,988.41
2017-05-11T12:11:05.734Z,988.43
2017-05-11T12:12:06.355Z,988.44
2017-05-11T12:13:06.988Z,988.30
2017-05-11T12:14:07.819Z,988.37
2017-05-11T12:15:08.657Z,988.38
2017-05-11T12:16:09.515Z,988.37
2017-05-11T12:17:10.133Z,988.33
2017-05-11T12:18:10.763Z,988.36
2017-05-11T12:19:11.390Z,988.35
2017-05-11T12:20:12.020Z,988.29
2017-05-11T12:21:12.649Z,988.33
2017-05-11T12:22:13.262Z,988.25
2017-05-11T12:23:13.885Z,988.26
2017-05-11T12:24:14.716Z,988.27
2017-05-11T12:25:15.362Z,988.25
2017-05-11T12:26:16.189Z,988.28
2017-05-11T12:27:16.818Z,988.23
2017-05-11T12:28:17.646Z,988.27
2017-05-11T12:29:18.265Z,988.25
2017-05-11T12:30:18.882Z,988.19
2017-05-11T12:31:19.692Z,988.26
2017-05-11T12:32:20.319Z,988.23
2017-05-11T12:33:20.932Z,988.19
2017-05-11T12:34:21.554Z,988.19
2017-05-11T12:35:22.167Z,988.16
2017-05-11T12:36:22.832Z,988.17